sensor_id;sensor_type;location;lat;lon;timestamp;P1;durP1;ratioP1;P2;durP2;ratioP2
27746;SDS011;15138;51.012;4.692;2023-05-10T00:01:44;15.82;;;9.35;;
27746;SDS011;15138;51.012;4.692;2023-05-10T00:04:12;14.25;;;8.48;;
27746;SDS011;15138;51.012;4.692;2023-05-10T00:06:40;15.98;;;8.88;;
27746;SDS011;15138;51.012;4.692;2023-05-10T00:09:08;11.65;;;8.32;;
27746;SDS011;15138;51.012;4.692;2023-05-10T00:11:37;14.18;;;8.95;;
27746;SDS011;15138;51.012;4.692;2023-05-10T00:14:06;9.38;;;5.38;;
27746;SDS011;15138;51.012;4.692;2023-05-10T00:16:34;13.95;;;9.50;;
27746;SDS011;15138;51.012;4.692;2023-05-10T00:19:02;11.35;;;6.28;;
27746;SDS011;15138;51.012;4.692;2023-05-10T00:21:31;11.82;;;6.70;;
27746;SDS011;15138;51.012;4.692;2023-05-10T00:24:00;17.75;;;9.75;;
27746;SDS011;15138;51.012;4.692;2023-05-10T00:26:28;16.73;;;9.35;;
27746;SDS011;15138;51.012;4.692;2023-05-10T00:28:56;14.95;;;9.13;;
27746;SDS011;15138;51.012;4.692;2023-05-10T00:31:26;15.18;;;8.50;;
27746;SDS011;15138;51.012;4.692;2023-05-10T00:33:54;21.52;;;9.32;;
27746;SDS011;15138;51.012;4.692;2023-05-10T00:36:23;17.95;;;8.85;;
27746;SDS011;15138;51.012;4.692;2023-05-10T00:38:51;16.08;;;8.25;;
27746;SDS011;15138;51.012;4.692;2023-05-10T00:41:19;16.25;;;8.60;;
27746;SDS011;15138;51.012;4.692;2023-05-10T00:43:48;15.98;;;8.25;;
27746;SDS011;15138;51.012;4.692;2023-05-10T00:46:16;15.60;;;8.82;;
27746;SDS011;15138;51.012;4.692;2023-05-10T00:48:46;11.20;;;7.68;;
27746;SDS011;15138;51.012;4.692;2023-05-10T00:51:14;17.35;;;9.50;;
27746;SDS011;15138;51.012;4.692;2023-05-10T00:53:43;8.60;;;5.85;;
27746;SDS011;15138;51.012;4.692;2023-05-10T00:56:12;15.45;;;9.38;;
27746;SDS011;15138;51.012;4.692;2023-05-10T00:58:40;15.48;;;8.02;;
27746;SDS011;15138;51.012;4.692;2023-05-10T01:01:09;18.00;;;8.27;;
27746;SDS011;15138;51.012;4.692;2023-05-10T01:03:39;19.60;;;8.00;;
27746;SDS011;15138;51.012;4.692;2023-05-10T01:06:09;16.15;;;8.75;;
27746;SDS011;15138;51.012;4.692;2023-05-10T01:08:37;13.60;;;7.38;;
27746;SDS011;15138;51.012;4.692;2023-05-10T01:11:06;19.17;;;8.73;;
27746;SDS011;15138;51.012;4.692;2023-05-10T01:13:35;13.68;;;7.00;;
27746;SDS011;15138;51.012;4.692;2023-05-10T01:16:06;21.15;;;9.73;;
27746;SDS011;15138;51.012;4.692;2023-05-10T01:18:35;18.48;;;8.25;;
27746;SDS011;15138;51.012;4.692;2023-05-10T01:21:09;14.50;;;5.95;;
27746;SDS011;15138;51.012;4.692;2023-05-10T01:26:57;11.38;;;5.63;;
27746;SDS011;15138;51.012;4.692;2023-05-10T01:29:46;20.60;;;9.43;;
27746;SDS011;15138;51.012;4.692;2023-05-10T01:32:34;17.48;;;9.48;;
27746;SDS011;15138;51.012;4.692;2023-05-10T01:35:07;26.98;;;10.95;;
27746;SDS011;15138;51.012;4.692;2023-05-10T01:37:45;17.10;;;10.25;;
27746;SDS011;15138;51.012;4.692;2023-05-10T01:40:19;21.15;;;10.23;;
27746;SDS011;15138;51.012;4.692;2023-05-10T01:42:54;18.25;;;10.52;;
27746;SDS011;15138;51.012;4.692;2023-05-10T01:45:30;20.58;;;10.88;;
27746;SDS011;15138;51.012;4.692;2023-05-10T01:48:05;20.60;;;10.73;;
27746;SDS011;15138;51.012;4.692;2023-05-10T01:50:35;16.55;;;9.68;;
27746;SDS011;15138;51.012;4.692;2023-05-10T01:53:06;16.00;;;8.85;;
27746;SDS011;15138;51.012;4.692;2023-05-10T01:55:39;18.23;;;11.00;;
27746;SDS011;15138;51.012;4.692;2023-05-10T01:58:13;21.25;;;11.23;;
27746;SDS011;15138;51.012;4.692;2023-05-10T02:00:43;22.08;;;10.60;;
27746;SDS011;15138;51.012;4.692;2023-05-10T02:03:14;16.10;;;8.63;;
27746;SDS011;15138;51.012;4.692;2023-05-10T02:05:45;20.85;;;10.82;;
27746;SDS011;15138;51.012;4.692;2023-05-10T02:08:15;22.15;;;12.73;;
27746;SDS011;15138;51.012;4.692;2023-05-10T02:10:46;21.30;;;11.32;;
27746;SDS011;15138;51.012;4.692;2023-05-10T02:13:16;21.35;;;11.98;;
27746;SDS011;15138;51.012;4.692;2023-05-10T02:15:45;22.50;;;12.35;;
27746;SDS011;15138;51.012;4.692;2023-05-10T02:18:17;16.92;;;10.43;;
27746;SDS011;15138;51.012;4.692;2023-05-10T02:20:46;20.90;;;10.52;;
27746;SDS011;15138;51.012;4.692;2023-05-10T02:23:15;24.80;;;12.13;;
27746;SDS011;15138;51.012;4.692;2023-05-10T02:25:45;15.60;;;7.85;;
27746;SDS011;15138;51.012;4.692;2023-05-10T02:28:16;20.92;;;10.73;;
27746;SDS011;15138;51.012;4.692;2023-05-10T02:30:45;20.08;;;11.23;;
27746;SDS011;15138;51.012;4.692;2023-05-10T02:33:14;22.20;;;12.02;;
27746;SDS011;15138;51.012;4.692;2023-05-10T02:35:45;21.65;;;11.77;;
27746;SDS011;15138;51.012;4.692;2023-05-10T02:38:14;25.70;;;13.15;;
27746;SDS011;15138;51.012;4.692;2023-05-10T02:40:43;19.05;;;12.10;;
27746;SDS011;15138;51.012;4.692;2023-05-10T02:43:13;26.10;;;13.27;;
27746;SDS011;15138;51.012;4.692;2023-05-10T02:45:43;20.55;;;11.80;;
27746;SDS011;15138;51.012;4.692;2023-05-10T02:48:16;16.77;;;9.68;;
27746;SDS011;15138;51.012;4.692;2023-05-10T02:50:45;27.60;;;10.50;;
27746;SDS011;15138;51.012;4.692;2023-05-10T02:53:18;21.88;;;11.32;;
27746;SDS011;15138;51.012;4.692;2023-05-10T02:55:55;19.88;;;11.32;;
27746;SDS011;15138;51.012;4.692;2023-05-10T02:58:27;24.00;;;12.32;;
27746;SDS011;15138;51.012;4.692;2023-05-10T03:00:56;23.15;;;11.77;;
27746;SDS011;15138;51.012;4.692;2023-05-10T03:03:25;20.75;;;11.43;;
27746;SDS011;15138;51.012;4.692;2023-05-10T03:05:53;20.77;;;11.32;;
27746;SDS011;15138;51.012;4.692;2023-05-10T03:08:22;22.75;;;13.32;;
27746;SDS011;15138;51.012;4.692;2023-05-10T03:10:55;22.30;;;13.15;;
27746;SDS011;15138;51.012;4.692;2023-05-10T03:13:36;20.88;;;12.10;;
27746;SDS011;15138;51.012;4.692;2023-05-10T03:16:12;20.60;;;12.75;;
27746;SDS011;15138;51.012;4.692;2023-05-10T03:18:47;24.25;;;14.05;;
27746;SDS011;15138;51.012;4.692;2023-05-10T03:21:22;33.15;;;14.40;;
27746;SDS011;15138;51.012;4.692;2023-05-10T03:23:55;24.30;;;15.40;;
27746;SDS011;15138;51.012;4.692;2023-05-10T03:26:29;23.27;;;13.05;;
27746;SDS011;15138;51.012;4.692;2023-05-10T03:28:58;21.05;;;10.73;;
27746;SDS011;15138;51.012;4.692;2023-05-10T03:31:27;24.70;;;13.02;;
27746;SDS011;15138;51.012;4.692;2023-05-10T03:33:57;23.85;;;13.52;;
27746;SDS011;15138;51.012;4.692;2023-05-10T03:36:25;27.10;;;16.13;;
27746;SDS011;15138;51.012;4.692;2023-05-10T03:38:53;25.00;;;12.60;;
27746;SDS011;15138;51.012;4.692;2023-05-10T03:41:21;29.15;;;16.65;;
27746;SDS011;15138;51.012;4.692;2023-05-10T03:43:49;31.35;;;14.88;;
27746;SDS011;15138;51.012;4.692;2023-05-10T03:46:18;28.98;;;14.90;;
27746;SDS011;15138;51.012;4.692;2023-05-10T03:48:46;26.05;;;17.05;;
27746;SDS011;15138;51.012;4.692;2023-05-10T03:51:15;24.95;;;15.40;;
27746;SDS011;15138;51.012;4.692;2023-05-10T03:53:43;28.45;;;17.58;;
27746;SDS011;15138;51.012;4.692;2023-05-10T03:56:12;26.60;;;15.63;;
27746;SDS011;15138;51.012;4.692;2023-05-10T03:58:40;30.23;;;16.95;;
27746;SDS011;15138;51.012;4.692;2023-05-10T04:01:08;28.38;;;16.00;;
27746;SDS011;15138;51.012;4.692;2023-05-10T04:03:38;24.17;;;13.95;;
27746;SDS011;15138;51.012;4.692;2023-05-10T04:06:07;32.95;;;19.33;;
27746;SDS011;15138;51.012;4.692;2023-05-10T04:08:39;27.65;;;10.65;;
27746;SDS011;15138;51.012;4.692;2023-05-10T04:11:07;23.05;;;14.02;;
27746;SDS011;15138;51.012;4.692;2023-05-10T04:13:37;31.42;;;17.58;;
27746;SDS011;15138;51.012;4.692;2023-05-10T04:16:05;33.63;;;19.90;;
27746;SDS011;15138;51.012;4.692;2023-05-10T04:18:34;30.10;;;18.40;;
27746;SDS011;15138;51.012;4.692;2023-05-10T04:21:02;35.22;;;20.42;;
27746;SDS011;15138;51.012;4.692;2023-05-10T04:23:31;28.15;;;15.00;;
27746;SDS011;15138;51.012;4.692;2023-05-10T04:26:01;29.23;;;16.45;;
27746;SDS011;15138;51.012;4.692;2023-05-10T04:28:30;26.33;;;14.95;;
27746;SDS011;15138;51.012;4.692;2023-05-10T04:31:02;35.22;;;20.85;;
27746;SDS011;15138;51.012;4.692;2023-05-10T04:33:30;33.25;;;18.30;;
27746;SDS011;15138;51.012;4.692;2023-05-10T04:35:59;37.20;;;21.38;;
27746;SDS011;15138;51.012;4.692;2023-05-10T04:38:27;32.08;;;18.52;;
27746;SDS011;15138;51.012;4.692;2023-05-10T04:41:04;38.85;;;22.48;;
27746;SDS011;15138;51.012;4.692;2023-05-10T04:43:33;31.92;;;20.05;;
27746;SDS011;15138;51.012;4.692;2023-05-10T04:46:02;28.40;;;16.25;;
27746;SDS011;15138;51.012;4.692;2023-05-10T04:48:31;39.03;;;21.58;;
27746;SDS011;15138;51.012;4.692;2023-05-10T04:51:00;33.63;;;19.70;;
27746;SDS011;15138;51.012;4.692;2023-05-10T04:53:30;32.88;;;20.15;;
27746;SDS011;15138;51.012;4.692;2023-05-10T04:55:59;45.65;;;24.45;;
27746;SDS011;15138;51.012;4.692;2023-05-10T04:58:28;45.33;;;24.42;;
27746;SDS011;15138;51.012;4.692;2023-05-10T05:00:57;46.47;;;26.55;;
27746;SDS011;15138;51.012;4.692;2023-05-10T05:03:25;53.33;;;28.95;;
27746;SDS011;15138;51.012;4.692;2023-05-10T05:05:54;45.08;;;24.73;;
27746;SDS011;15138;51.012;4.692;2023-05-10T05:08:22;39.70;;;21.88;;
27746;SDS011;15138;51.012;4.692;2023-05-10T05:10:51;49.00;;;26.73;;
27746;SDS011;15138;51.012;4.692;2023-05-10T05:13:19;36.50;;;20.05;;
27746;SDS011;15138;51.012;4.692;2023-05-10T05:15:49;44.03;;;26.15;;
27746;SDS011;15138;51.012;4.692;2023-05-10T05:18:18;50.88;;;29.17;;
27746;SDS011;15138;51.012;4.692;2023-05-10T05:20:46;52.65;;;27.88;;
27746;SDS011;15138;51.012;4.692;2023-05-10T05:23:15;52.08;;;26.98;;
27746;SDS011;15138;51.012;4.692;2023-05-10T05:25:44;58.55;;;30.75;;
27746;SDS011;15138;51.012;4.692;2023-05-10T05:28:12;43.72;;;22.67;;
27746;SDS011;15138;51.012;4.692;2023-05-10T05:30:41;61.90;;;31.70;;
27746;SDS011;15138;51.012;4.692;2023-05-10T05:33:11;46.72;;;26.00;;
27746;SDS011;15138;51.012;4.692;2023-05-10T05:35:39;60.83;;;32.35;;
27746;SDS011;15138;51.012;4.692;2023-05-10T05:38:09;60.17;;;30.35;;
27746;SDS011;15138;51.012;4.692;2023-05-10T05:40:37;57.00;;;28.88;;
27746;SDS011;15138;51.012;4.692;2023-05-10T05:43:06;68.22;;;33.03;;
27746;SDS011;15138;51.012;4.692;2023-05-10T05:45:34;57.42;;;30.50;;
27746;SDS011;15138;51.012;4.692;2023-05-10T05:48:03;51.78;;;27.52;;
27746;SDS011;15138;51.012;4.692;2023-05-10T05:50:33;53.75;;;28.98;;
27746;SDS011;15138;51.012;4.692;2023-05-10T05:53:01;46.42;;;25.55;;
27746;SDS011;15138;51.012;4.692;2023-05-10T05:55:30;52.22;;;28.30;;
27746;SDS011;15138;51.012;4.692;2023-05-10T05:57:58;59.22;;;30.75;;
27746;SDS011;15138;51.012;4.692;2023-05-10T06:00:27;60.45;;;30.27;;
27746;SDS011;15138;51.012;4.692;2023-05-10T06:02:55;62.83;;;32.50;;
27746;SDS011;15138;51.012;4.692;2023-05-10T06:05:24;55.30;;;28.65;;
27746;SDS011;15138;51.012;4.692;2023-05-10T06:07:54;37.13;;;19.27;;
27746;SDS011;15138;51.012;4.692;2023-05-10T06:10:22;48.20;;;26.40;;
27746;SDS011;15138;51.012;4.692;2023-05-10T06:12:51;48.10;;;27.88;;
27746;SDS011;15138;51.012;4.692;2023-05-10T06:15:20;46.70;;;25.58;;
27746;SDS011;15138;51.012;4.692;2023-05-10T06:17:48;47.28;;;26.50;;
27746;SDS011;15138;51.012;4.692;2023-05-10T06:20:17;41.60;;;23.17;;
27746;SDS011;15138;51.012;4.692;2023-05-10T06:22:45;37.58;;;21.63;;
27746;SDS011;15138;51.012;4.692;2023-05-10T06:25:15;32.88;;;18.30;;
27746;SDS011;15138;51.012;4.692;2023-05-10T06:27:45;39.40;;;21.52;;
27746;SDS011;15138;51.012;4.692;2023-05-10T06:30:18;44.33;;;25.95;;
27746;SDS011;15138;51.012;4.692;2023-05-10T06:32:49;30.67;;;17.48;;
27746;SDS011;15138;51.012;4.692;2023-05-10T06:35:18;47.15;;;26.35;;
27746;SDS011;15138;51.012;4.692;2023-05-10T06:37:46;40.80;;;22.83;;
27746;SDS011;15138;51.012;4.692;2023-05-10T06:40:16;39.08;;;23.77;;
27746;SDS011;15138;51.012;4.692;2023-05-10T06:42:45;45.40;;;25.98;;
27746;SDS011;15138;51.012;4.692;2023-05-10T06:45:13;43.88;;;23.60;;
27746;SDS011;15138;51.012;4.692;2023-05-10T06:47:43;32.38;;;17.98;;
27746;SDS011;15138;51.012;4.692;2023-05-10T06:50:12;39.03;;;23.88;;
27746;SDS011;15138;51.012;4.692;2023-05-10T06:52:40;45.47;;;24.95;;
27746;SDS011;15138;51.012;4.692;2023-05-10T06:55:09;34.17;;;20.52;;
27746;SDS011;15138;51.012;4.692;2023-05-10T06:57:39;38.72;;;23.30;;
27746;SDS011;15138;51.012;4.692;2023-05-10T07:00:08;28.83;;;18.83;;
27746;SDS011;15138;51.012;4.692;2023-05-10T07:02:37;39.92;;;23.10;;
27746;SDS011;15138;51.012;4.692;2023-05-10T07:05:05;27.75;;;15.93;;
27746;SDS011;15138;51.012;4.692;2023-05-10T07:07:34;36.17;;;21.73;;
27746;SDS011;15138;51.012;4.692;2023-05-10T07:10:02;34.25;;;21.10;;
27746;SDS011;15138;51.012;4.692;2023-05-10T07:12:31;29.08;;;16.45;;
27746;SDS011;15138;51.012;4.692;2023-05-10T07:15:01;36.53;;;22.08;;
27746;SDS011;15138;51.012;4.692;2023-05-10T07:17:29;32.03;;;19.30;;
27746;SDS011;15138;51.012;4.692;2023-05-10T07:19:59;34.80;;;20.88;;
27746;SDS011;15138;51.012;4.692;2023-05-10T07:22:28;31.98;;;19.80;;
27746;SDS011;15138;51.012;4.692;2023-05-10T07:24:56;36.20;;;22.20;;
27746;SDS011;15138;51.012;4.692;2023-05-10T07:27:25;35.13;;;18.85;;
27746;SDS011;15138;51.012;4.692;2023-05-10T07:29:53;30.23;;;16.55;;
27746;SDS011;15138;51.012;4.692;2023-05-10T07:32:24;33.90;;;19.88;;
27746;SDS011;15138;51.012;4.692;2023-05-10T07:34:52;27.15;;;16.90;;
27746;SDS011;15138;51.012;4.692;2023-05-10T07:37:21;32.50;;;19.15;;
27746;SDS011;15138;51.012;4.692;2023-05-10T07:39:49;30.23;;;17.88;;
27746;SDS011;15138;51.012;4.692;2023-05-10T07:42:18;30.38;;;18.25;;
27746;SDS011;15138;51.012;4.692;2023-05-10T07:44:46;37.45;;;19.85;;
27746;SDS011;15138;51.012;4.692;2023-05-10T07:47:14;31.98;;;19.17;;
27746;SDS011;15138;51.012;4.692;2023-05-10T07:49:44;17.52;;;10.07;;
27746;SDS011;15138;51.012;4.692;2023-05-10T07:52:13;28.58;;;18.38;;
27746;SDS011;15138;51.012;4.692;2023-05-10T07:54:41;30.20;;;18.50;;
27746;SDS011;15138;51.012;4.692;2023-05-10T07:57:10;32.50;;;19.40;;
27746;SDS011;15138;51.012;4.692;2023-05-10T07:59:40;30.08;;;19.52;;
27746;SDS011;15138;51.012;4.692;2023-05-10T08:02:09;23.60;;;14.73;;
27746;SDS011;15138;51.012;4.692;2023-05-10T08:04:37;28.33;;;17.40;;
27746;SDS011;15138;51.012;4.692;2023-05-10T08:07:07;24.20;;;14.93;;
27746;SDS011;15138;51.012;4.692;2023-05-10T08:09:37;31.85;;;19.58;;
27746;SDS011;15138;51.012;4.692;2023-05-10T08:12:05;30.08;;;18.50;;
27746;SDS011;15138;51.012;4.692;2023-05-10T08:14:34;35.55;;;19.00;;
27746;SDS011;15138;51.012;4.692;2023-05-10T08:17:04;32.30;;;18.98;;
27746;SDS011;15138;51.012;4.692;2023-05-10T08:19:32;31.63;;;17.60;;
27746;SDS011;15138;51.012;4.692;2023-05-10T08:22:01;27.30;;;15.02;;
27746;SDS011;15138;51.012;4.692;2023-05-10T08:24:30;36.42;;;20.10;;
27746;SDS011;15138;51.012;4.692;2023-05-10T08:27:01;31.45;;;18.90;;
27746;SDS011;15138;51.012;4.692;2023-05-10T08:29:29;32.90;;;19.35;;
27746;SDS011;15138;51.012;4.692;2023-05-10T08:32:11;28.45;;;17.45;;
27746;SDS011;15138;51.012;4.692;2023-05-10T08:34:40;27.60;;;14.88;;
27746;SDS011;15138;51.012;4.692;2023-05-10T08:37:08;31.70;;;18.52;;
27746;SDS011;15138;51.012;4.692;2023-05-10T08:39:41;37.78;;;19.10;;
27746;SDS011;15138;51.012;4.692;2023-05-10T08:42:09;37.20;;;20.02;;
27746;SDS011;15138;51.012;4.692;2023-05-10T08:44:37;30.45;;;18.23;;
27746;SDS011;15138;51.012;4.692;2023-05-10T08:47:06;32.72;;;18.10;;
27746;SDS011;15138;51.012;4.692;2023-05-10T08:49:35;32.65;;;17.55;;
27746;SDS011;15138;51.012;4.692;2023-05-10T08:52:05;32.47;;;17.35;;
27746;SDS011;15138;51.012;4.692;2023-05-10T08:54:33;28.77;;;15.25;;
27746;SDS011;15138;51.012;4.692;2023-05-10T08:57:03;30.27;;;16.77;;
27746;SDS011;15138;51.012;4.692;2023-05-10T08:59:32;25.73;;;15.57;;
27746;SDS011;15138;51.012;4.692;2023-05-10T09:02:00;28.25;;;16.17;;
27746;SDS011;15138;51.012;4.692;2023-05-10T09:04:29;23.88;;;14.43;;
27746;SDS011;15138;51.012;4.692;2023-05-10T09:06:59;28.60;;;15.75;;
27746;SDS011;15138;51.012;4.692;2023-05-10T09:09:27;28.10;;;15.18;;
27746;SDS011;15138;51.012;4.692;2023-05-10T09:11:56;28.63;;;15.07;;
27746;SDS011;15138;51.012;4.692;2023-05-10T09:14:26;20.65;;;12.27;;
27746;SDS011;15138;51.012;4.692;2023-05-10T09:16:54;23.50;;;13.95;;
27746;SDS011;15138;51.012;4.692;2023-05-10T09:19:23;23.40;;;13.55;;
27746;SDS011;15138;51.012;4.692;2023-05-10T09:21:51;26.38;;;13.80;;
27746;SDS011;15138;51.012;4.692;2023-05-10T09:24:20;21.60;;;12.25;;
27746;SDS011;15138;51.012;4.692;2023-05-10T09:26:53;25.67;;;14.02;;
27746;SDS011;15138;51.012;4.692;2023-05-10T09:29:21;23.50;;;13.05;;
27746;SDS011;15138;51.012;4.692;2023-05-10T09:31:51;24.27;;;13.23;;
27746;SDS011;15138;51.012;4.692;2023-05-10T09:34:22;24.00;;;13.93;;
27746;SDS011;15138;51.012;4.692;2023-05-10T09:36:57;21.38;;;14.00;;
27746;SDS011;15138;51.012;4.692;2023-05-10T09:39:30;26.50;;;13.02;;
27746;SDS011;15138;51.012;4.692;2023-05-10T09:41:59;18.80;;;9.15;;
27746;SDS011;15138;51.012;4.692;2023-05-10T09:44:30;18.90;;;9.93;;
27746;SDS011;15138;51.012;4.692;2023-05-10T09:47:00;18.88;;;10.65;;
27746;SDS011;15138;51.012;4.692;2023-05-10T09:49:28;19.08;;;9.23;;
27746;SDS011;15138;51.012;4.692;2023-05-10T09:51:59;19.85;;;10.55;;
27746;SDS011;15138;51.012;4.692;2023-05-10T09:54:27;18.15;;;10.13;;
27746;SDS011;15138;51.012;4.692;2023-05-10T09:56:56;19.17;;;9.35;;
27746;SDS011;15138;51.012;4.692;2023-05-10T09:59:25;16.95;;;9.85;;
27746;SDS011;15138;51.012;4.692;2023-05-10T10:01:55;14.77;;;8.80;;
27746;SDS011;15138;51.012;4.692;2023-05-10T10:04:26;15.23;;;9.40;;
27746;SDS011;15138;51.012;4.692;2023-05-10T10:06:58;18.98;;;10.13;;
27746;SDS011;15138;51.012;4.692;2023-05-10T10:09:27;14.63;;;9.60;;
27746;SDS011;15138;51.012;4.692;2023-05-10T10:11:55;14.60;;;8.63;;
27746;SDS011;15138;51.012;4.692;2023-05-10T10:14:25;10.43;;;6.60;;
27746;SDS011;15138;51.012;4.692;2023-05-10T10:16:53;20.58;;;9.65;;
27746;SDS011;15138;51.012;4.692;2023-05-10T10:19:34;15.05;;;8.52;;
27746;SDS011;15138;51.012;4.692;2023-05-10T10:22:03;16.83;;;9.25;;
27746;SDS011;15138;51.012;4.692;2023-05-10T10:24:32;14.07;;;8.68;;
27746;SDS011;15138;51.012;4.692;2023-05-10T10:27:10;13.57;;;9.13;;
27746;SDS011;15138;51.012;4.692;2023-05-10T10:29:44;14.75;;;8.73;;
27746;SDS011;15138;51.012;4.692;2023-05-10T10:32:19;19.75;;;10.40;;
27746;SDS011;15138;51.012;4.692;2023-05-10T10:34:51;14.77;;;9.00;;
27746;SDS011;15138;51.012;4.692;2023-05-10T10:37:20;17.38;;;9.75;;
27746;SDS011;15138;51.012;4.692;2023-05-10T10:39:48;14.18;;;9.18;;
27746;SDS011;15138;51.012;4.692;2023-05-10T10:45:11;14.32;;;9.55;;
27746;SDS011;15138;51.012;4.692;2023-05-10T10:47:40;17.40;;;8.93;;
27746;SDS011;15138;51.012;4.692;2023-05-10T10:50:11;13.10;;;7.57;;
27746;SDS011;15138;51.012;4.692;2023-05-10T10:52:40;12.63;;;8.40;;
27746;SDS011;15138;51.012;4.692;2023-05-10T10:55:09;12.00;;;7.55;;
27746;SDS011;15138;51.012;4.692;2023-05-10T10:57:44;12.57;;;7.55;;
27746;SDS011;15138;51.012;4.692;2023-05-10T11:02:45;10.50;;;6.82;;
27746;SDS011;15138;51.012;4.692;2023-05-10T11:08:15;10.90;;;7.45;;
27746;SDS011;15138;51.012;4.692;2023-05-10T11:10:51;12.00;;;7.93;;
27746;SDS011;15138;51.012;4.692;2023-05-10T11:13:29;9.10;;;7.03;;
27746;SDS011;15138;51.012;4.692;2023-05-10T11:15:58;12.45;;;7.28;;
27746;SDS011;15138;51.012;4.692;2023-05-10T11:18:37;12.40;;;6.43;;
27746;SDS011;15138;51.012;4.692;2023-05-10T11:21:07;10.10;;;6.30;;
27746;SDS011;15138;51.012;4.692;2023-05-10T11:23:51;10.30;;;6.35;;
27746;SDS011;15138;51.012;4.692;2023-05-10T11:26:22;9.25;;;6.10;;
27746;SDS011;15138;51.012;4.692;2023-05-10T11:28:52;8.68;;;5.88;;
27746;SDS011;15138;51.012;4.692;2023-05-10T11:31:22;9.70;;;6.43;;
27746;SDS011;15138;51.012;4.692;2023-05-10T11:33:53;11.65;;;6.25;;
27746;SDS011;15138;51.012;4.692;2023-05-10T11:36:23;9.23;;;5.90;;
27746;SDS011;15138;51.012;4.692;2023-05-10T11:38:54;9.55;;;6.50;;
27746;SDS011;15138;51.012;4.692;2023-05-10T11:41:23;12.93;;;6.43;;
27746;SDS011;15138;51.012;4.692;2023-05-10T11:43:52;9.88;;;5.57;;
27746;SDS011;15138;51.012;4.692;2023-05-10T11:46:21;10.57;;;5.75;;
27746;SDS011;15138;51.012;4.692;2023-05-10T11:48:51;9.48;;;5.97;;
27746;SDS011;15138;51.012;4.692;2023-05-10T11:51:20;9.60;;;6.60;;
27746;SDS011;15138;51.012;4.692;2023-05-10T11:53:48;6.60;;;5.20;;
27746;SDS011;15138;51.012;4.692;2023-05-10T11:56:18;8.68;;;5.13;;
27746;SDS011;15138;51.012;4.692;2023-05-10T11:58:52;7.57;;;4.22;;
27746;SDS011;15138;51.012;4.692;2023-05-10T12:01:20;7.93;;;5.53;;
27746;SDS011;15138;51.012;4.692;2023-05-10T12:03:49;6.25;;;4.30;;
27746;SDS011;15138;51.012;4.692;2023-05-10T12:06:18;13.10;;;5.97;;
27746;SDS011;15138;51.012;4.692;2023-05-10T12:08:47;8.60;;;5.53;;
27746;SDS011;15138;51.012;4.692;2023-05-10T12:11:20;8.90;;;5.85;;
27746;SDS011;15138;51.012;4.692;2023-05-10T12:13:52;7.32;;;5.30;;
27746;SDS011;15138;51.012;4.692;2023-05-10T12:16:21;7.25;;;4.82;;
27746;SDS011;15138;51.012;4.692;2023-05-10T12:18:50;10.65;;;5.18;;
27746;SDS011;15138;51.012;4.692;2023-05-10T12:21:19;8.40;;;4.05;;
27746;SDS011;15138;51.012;4.692;2023-05-10T12:23:48;6.43;;;4.50;;
27746;SDS011;15138;51.012;4.692;2023-05-10T12:26:17;6.32;;;4.55;;
27746;SDS011;15138;51.012;4.692;2023-05-10T12:28:48;5.97;;;3.00;;
27746;SDS011;15138;51.012;4.692;2023-05-10T12:31:16;5.72;;;4.00;;
27746;SDS011;15138;51.012;4.692;2023-05-10T12:33:45;6.00;;;4.20;;
27746;SDS011;15138;51.012;4.692;2023-05-10T12:36:15;7.93;;;4.80;;
27746;SDS011;15138;51.012;4.692;2023-05-10T12:38:44;8.60;;;4.25;;
27746;SDS011;15138;51.012;4.692;2023-05-10T12:41:14;4.80;;;3.28;;
27746;SDS011;15138;51.012;4.692;2023-05-10T12:43:44;6.90;;;4.10;;
27746;SDS011;15138;51.012;4.692;2023-05-10T12:46:15;7.03;;;3.70;;
27746;SDS011;15138;51.012;4.692;2023-05-10T12:48:45;6.70;;;3.65;;
27746;SDS011;15138;51.012;4.692;2023-05-10T12:51:25;6.70;;;4.32;;
27746;SDS011;15138;51.012;4.692;2023-05-10T12:53:53;6.18;;;4.35;;
27746;SDS011;15138;51.012;4.692;2023-05-10T12:56:22;6.10;;;4.18;;
27746;SDS011;15138;51.012;4.692;2023-05-10T12:58:50;7.22;;;4.78;;
27746;SDS011;15138;51.012;4.692;2023-05-10T13:01:20;6.80;;;4.32;;
27746;SDS011;15138;51.012;4.692;2023-05-10T13:03:49;6.68;;;4.03;;
27746;SDS011;15138;51.012;4.692;2023-05-10T13:06:17;7.35;;;4.57;;
27746;SDS011;15138;51.012;4.692;2023-05-10T13:08:46;8.20;;;5.72;;
27746;SDS011;15138;51.012;4.692;2023-05-10T13:11:14;6.13;;;4.57;;
27746;SDS011;15138;51.012;4.692;2023-05-10T13:13:43;8.93;;;5.65;;
27746;SDS011;15138;51.012;4.692;2023-05-10T13:16:11;5.95;;;4.13;;
27746;SDS011;15138;51.012;4.692;2023-05-10T13:18:41;8.13;;;5.07;;
27746;SDS011;15138;51.012;4.692;2023-05-10T13:21:09;8.07;;;4.32;;
27746;SDS011;15138;51.012;4.692;2023-05-10T13:23:38;6.32;;;4.63;;
27746;SDS011;15138;51.012;4.692;2023-05-10T13:26:06;7.05;;;4.38;;
27746;SDS011;15138;51.012;4.692;2023-05-10T13:28:35;8.82;;;5.22;;
27746;SDS011;15138;51.012;4.692;2023-05-10T13:31:05;8.68;;;5.07;;
27746;SDS011;15138;51.012;4.692;2023-05-10T13:33:33;9.90;;;5.97;;
27746;SDS011;15138;51.012;4.692;2023-05-10T13:36:03;8.38;;;5.88;;
27746;SDS011;15138;51.012;4.692;2023-05-10T13:38:31;6.43;;;4.65;;
27746;SDS011;15138;51.012;4.692;2023-05-10T13:41:00;8.85;;;4.00;;
27746;SDS011;15138;51.012;4.692;2023-05-10T13:43:28;10.95;;;4.70;;
27746;SDS011;15138;51.012;4.692;2023-05-10T13:45:57;9.00;;;5.75;;
27746;SDS011;15138;51.012;4.692;2023-05-10T13:48:26;8.88;;;4.22;;
27746;SDS011;15138;51.012;4.692;2023-05-10T13:50:54;5.40;;;3.80;;
27746;SDS011;15138;51.012;4.692;2023-05-10T13:53:24;11.13;;;6.03;;
27746;SDS011;15138;51.012;4.692;2023-05-10T13:55:53;9.02;;;5.60;;
27746;SDS011;15138;51.012;4.692;2023-05-10T13:58:21;6.85;;;5.00;;
27746;SDS011;15138;51.012;4.692;2023-05-10T14:00:49;8.15;;;5.00;;
27746;SDS011;15138;51.012;4.692;2023-05-10T14:03:18;10.68;;;5.07;;
27746;SDS011;15138;51.012;4.692;2023-05-10T14:05:46;6.60;;;4.53;;
27746;SDS011;15138;51.012;4.692;2023-05-10T14:08:15;5.97;;;3.92;;
27746;SDS011;15138;51.012;4.692;2023-05-10T14:10:45;5.50;;;3.70;;
27746;SDS011;15138;51.012;4.692;2023-05-10T14:13:14;8.80;;;4.38;;
27746;SDS011;15138;51.012;4.692;2023-05-10T14:15:43;6.82;;;4.00;;
27746;SDS011;15138;51.012;4.692;2023-05-10T14:18:11;5.32;;;3.38;;
27746;SDS011;15138;51.012;4.692;2023-05-10T14:20:39;5.35;;;4.47;;
27746;SDS011;15138;51.012;4.692;2023-05-10T14:23:08;10.40;;;5.28;;
27746;SDS011;15138;51.012;4.692;2023-05-10T14:25:37;8.35;;;4.65;;
27746;SDS011;15138;51.012;4.692;2023-05-10T14:28:07;6.07;;;3.70;;
27746;SDS011;15138;51.012;4.692;2023-05-10T14:30:36;10.38;;;4.63;;
27746;SDS011;15138;51.012;4.692;2023-05-10T14:33:04;9.85;;;4.70;;
27746;SDS011;15138;51.012;4.692;2023-05-10T14:35:34;7.18;;;4.85;;
27746;SDS011;15138;51.012;4.692;2023-05-10T14:38:02;10.15;;;4.25;;
27746;SDS011;15138;51.012;4.692;2023-05-10T14:40:31;10.13;;;4.53;;
27746;SDS011;15138;51.012;4.692;2023-05-10T14:42:59;9.68;;;4.95;;
27746;SDS011;15138;51.012;4.692;2023-05-10T14:45:29;5.50;;;3.42;;
27746;SDS011;15138;51.012;4.692;2023-05-10T14:47:57;10.15;;;5.78;;
27746;SDS011;15138;51.012;4.692;2023-05-10T14:50:26;10.63;;;4.90;;
27746;SDS011;15138;51.012;4.692;2023-05-10T14:53:02;10.15;;;5.55;;
27746;SDS011;15138;51.012;4.692;2023-05-10T14:55:30;7.15;;;4.43;;
27746;SDS011;15138;51.012;4.692;2023-05-10T14:57:59;8.68;;;5.45;;